createdAt,value
2018-05-18T11:25:57.072Z,55.74
2018-05-18T11:28:22.919Z,47.13
2018-05-18T11:30:48.589Z,47.51
2018-05-18T11:33:14.452Z,48.11
2018-05-18T11:35:40.320Z,46.97
2018-05-18T11:38:05.882Z,46.61
2018-05-18T11:40:31.541Z,47.08
2018-05-18T11:42:57.376Z,45.76
2018-05-18T11:45:22.960Z,44.79
2018-05-18T11:47:48.576Z,42.78
2018-05-18T11:50:14.501Z,43.88
2018-05-18T11:52:40.127Z,44.41
2018-05-18T11:55:05.791Z,45.12
2018-05-18T11:57:32.666Z,43.81
2018-05-18T11:59:58.291Z,44.40
2018-05-18T12:02:24.009Z,43.21
2018-05-18T12:04:49.786Z,44.22
2018-05-18T12:07:15.417Z,43.74
2018-05-18T12:09:41.225Z,43.97
2018-05-18T12:12:07.056Z,46.53
2018-05-18T12:14:32.626Z,45.46
2018-05-18T12:16:58.205Z,44.03
2018-05-18T12:19:24.090Z,43.29
2018-05-18T12:21:49.781Z,43.33
2018-05-18T12:24:15.365Z,42.95
2018-05-18T12:26:41.135Z,43.62
2018-05-18T12:29:06.798Z,43.13
2018-05-18T12:31:32.689Z,44.22
2018-05-18T12:33:58.416Z,42.69
2018-05-18T12:36:24.099Z,42.03
2018-05-18T12:38:49.953Z,40.82
2018-05-18T12:41:15.697Z,41.37
2018-05-18T12:43:41.275Z,39.49
2018-05-18T12:46:07.194Z,40.89
2018-05-18T12:48:33.027Z,40.77
2018-05-18T12:50:58.890Z,41.85
2018-05-18T12:53:24.482Z,40.36
2018-05-18T12:55:50.539Z,39.14
2018-05-18T12:58:16.209Z,38.95
2018-05-18T13:00:41.775Z,39.29
2018-05-18T13:03:07.558Z,39.46
2018-05-18T13:05:34.214Z,38.02
2018-05-18T13:07:59.762Z,37.26
2018-05-18T13:10:25.546Z,38.62
2018-05-18T13:12:51.139Z,38.10
2018-05-18T13:15:17.167Z,37.65
2018-05-18T13:17:42.961Z,35.92
2018-05-18T13:20:08.556Z,37.67
2018-05-18T13:22:34.218Z,37.19
2018-05-18T13:25:00.057Z,37.71
2018-05-18T13:27:25.685Z,37.21
2018-05-18T13:29:51.274Z,35.86
2018-05-18T13:32:17.144Z,33.63
2018-05-18T13:34:42.861Z,35.49
2018-05-18T13:37:08.497Z,33.27
2018-05-18T13:39:34.485Z,35.73
2018-05-18T13:42:00.219Z,37.11
2018-05-18T13:44:25.862Z,36.59
2018-05-18T13:46:51.781Z,35.01
2018-05-18T13:49:17.478Z,34.23
2018-05-18T13:51:43.229Z,32.70
2018-05-18T13:54:08.848Z,33.14
2018-05-18T13:56:34.423Z,33.79
2018-05-18T13:59:00.248Z,32.92
2018-05-18T14:01:26.324Z,34.91
2018-05-18T14:03:51.971Z,35.28
2018-05-18T14:06:17.569Z,32.96
2018-05-18T14:08:43.332Z,33.98
2018-05-18T14:11:08.978Z,35.53
2018-05-18T14:13:34.596Z,37.09
2018-05-18T14:16:00.366Z,35.93
2018-05-18T14:18:26.796Z,36.18
2018-05-18T14:20:52.396Z,36.19
2018-05-18T14:23:18.351Z,36.34
2018-05-18T14:25:44.028Z,36.17
2018-05-18T14:28:09.917Z,35.54
2018-05-18T14:30:35.490Z,35.80
2018-05-18T14:33:02.251Z,36.22
2018-05-18T14:35:27.914Z,36.46
2018-05-18T14:37:53.830Z,36.08
2018-05-18T14:40:19.386Z,36.08
2018-05-18T14:42:45.233Z,35.45
2018-05-18T14:45:11.033Z,36.66
2018-05-18T14:47:36.693Z,35.94
2018-05-18T14:50:02.322Z,35.27
2018-05-18T14:52:28.625Z,36.29
2018-05-18T14:54:54.217Z,36.61
2018-05-18T14:57:21.103Z,36.67
2018-05-18T14:59:46.924Z,36.96
2018-05-18T15:02:12.633Z,35.87
2018-05-18T15:04:38.340Z,36.04
2018-05-18T15:07:04.145Z,36.17
2018-05-18T15:09:29.733Z,35.53
2018-05-18T15:11:55.325Z,36.13
2018-05-18T15:14:21.200Z,35.74
2018-05-18T15:16:46.794Z,34.14
2018-05-18T15:19:12.813Z,34.84
2018-05-18T15:21:38.466Z,34.63
2018-05-18T15:24:04.355Z,34.56
2018-05-18T15:26:30.138Z,34.00
2018-05-18T15:28:55.718Z,34.44
2018-05-18T15:31:21.320Z,34.83
2018-05-18T15:33:47.243Z,34.23
2018-05-18T15:36:12.878Z,33.88
2018-05-18T15:38:38.495Z,35.02
2018-05-18T15:41:04.714Z,35.06
2018-05-18T15:43:30.414Z,34.19
2018-05-18T15:45:56.084Z,34.67
2018-05-18T15:48:21.905Z,34.53
2018-05-18T15:50:47.617Z,33.60
2018-05-18T15:53:13.282Z,34.61
2018-05-18T15:55:39.083Z,34.37
2018-05-18T15:58:05.231Z,32.44
2018-05-18T16:00:30.782Z,33.48
2018-05-18T16:02:56.864Z,34.78
2018-05-18T16:05:22.498Z,33.83
2018-05-18T16:07:48.164Z,33.35
2018-05-18T16:10:14.037Z,32.60
2018-05-18T16:12:39.733Z,32.05
2018-05-18T16:15:05.463Z,30.66
2018-05-18T16:17:31.254Z,31.46
2018-05-18T16:19:56.943Z,31.75
2018-05-18T16:22:22.633Z,31.94
2018-05-18T16:24:48.536Z,34.01
2018-05-18T16:27:14.289Z,33.39
2018-05-18T16:29:40.044Z,33.87
2018-05-18T16:32:05.767Z,33.62
2018-05-18T16:34:31.450Z,33.38
2018-05-18T16:36:57.051Z,35.66
2018-05-18T16:39:22.877Z,35.31
2018-05-18T16:41:49.003Z,34.70
2018-05-18T16:44:14.590Z,34.37
2018-05-18T16:46:40.701Z,33.56
2018-05-18T16:49:06.267Z,33.30
2018-05-18T16:51:31.918Z,33.93
2018-05-18T16:53:57.767Z,35.87
2018-05-18T16:56:24.809Z,33.96
2018-05-18T16:58:50.470Z,34.21
2018-05-18T17:01:16.453Z,34.05
2018-05-18T17:03:42.015Z,33.42
2018-05-18T17:06:07.596Z,33.64
2018-05-18T17:08:33.370Z,32.04
2018-05-18T17:10:58.981Z,33.92
2018-05-18T17:13:24.796Z,32.82
2018-05-18T17:15:50.592Z,30.77
2018-05-18T17:18:16.251Z,30.64
2018-05-18T17:20:41.885Z,30.87
2018-05-18T17:23:07.647Z,30.52
2018-05-18T17:25:33.330Z,31.33
2018-05-18T17:27:58.906Z,32.74
2018-05-18T17:30:25.115Z,33.17
2018-05-18T17:32:50.765Z,33.00
2018-05-18T17:35:16.343Z,34.01
2018-05-18T17:37:42.104Z,34.74
2018-05-18T17:40:07.658Z,35.37
2018-05-18T17:42:34.115Z,35.82
2018-05-18T17:44:59.914Z,36.42
2018-05-18T17:47:25.484Z,36.65
2018-05-18T17:49:51.169Z,36.62
2018-05-18T17:52:17.890Z,38.17
2018-05-18T17:54:44.398Z,39.92
2018-05-18T17:57:10.193Z,39.83
2018-05-18T17:59:36.030Z,40.78
2018-05-18T18:02:01.714Z,41.86
2018-05-18T18:04:27.208Z,41.96
2018-05-18T18:06:53.097Z,41.79
2018-05-18T18:09:18.761Z,42.47
2018-05-18T18:11:44.399Z,43.17
2018-05-18T18:14:10.233Z,43.60
2018-05-18T18:16:35.776Z,44.08
2018-05-18T18:19:01.654Z,44.79
2018-05-18T18:21:28.931Z,45.04
2018-05-18T18:23:55.337Z,45.66
2018-05-18T18:26:21.026Z,45.86
2018-05-18T18:28:47.065Z,45.80
2018-05-18T18:31:12.693Z,46.25
2018-05-18T18:33:39.071Z,47.06
2018-05-18T18:36:04.739Z,47.89
2018-05-18T18:38:31.532Z,47.82
2018-05-18T18:40:57.113Z,48.13
2018-05-18T18:43:22.805Z,48.33
2018-05-18T18:45:49.502Z,48.63
2018-05-18T18:48:15.078Z,48.17
2018-05-18T18:50:40.892Z,48.53
2018-05-18T18:53:07.467Z,49.13
2018-05-18T18:55:33.242Z,49.61
2018-05-18T18:57:59.932Z,50.08
2018-05-18T19:00:25.531Z,50.26
2018-05-18T19:02:51.193Z,50.36
2018-05-18T19:05:17.460Z,50.34
2018-05-18T19:07:43.103Z,50.45
2018-05-18T19:10:08.661Z,50.72
2018-05-18T19:12:34.421Z,50.82
2018-05-18T19:15:00.024Z,51.45
2018-05-18T19:17:25.870Z,51.09
2018-05-18T19:19:51.604Z,51.26
2018-05-18T19:22:17.165Z,52.44
2018-05-18T19:24:42.751Z,52.01
2018-05-18T19:27:08.517Z,51.65
2018-05-18T19:29:34.183Z,51.86
2018-05-18T19:31:59.775Z,52.02
2018-05-18T19:34:25.868Z,51.91
2018-05-18T19:36:51.715Z,51.98
2018-05-18T19:39:17.285Z,51.90
2018-05-18T19:41:43.157Z,52.26
2018-05-18T19:44:08.778Z,52.34
2018-05-18T19:46:34.451Z,52.97
2018-05-18T19:49:00.412Z,52.88
2018-05-18T19:51:26.064Z,53.17
2018-05-18T19:53:51.711Z,53.05
2018-05-18T19:56:17.849Z,53.65
2018-05-18T19:58:43.417Z,53.73
2018-05-18T20:01:09.069Z,54.46
2018-05-18T20:03:35.020Z,54.57
2018-05-18T20:06:00.701Z,55.05
2018-05-18T20:08:26.286Z,55.26
2018-05-18T20:10:52.035Z,54.38
2018-05-18T20:13:17.598Z,54.70
2018-05-18T20:15:43.188Z,55.14
2018-05-18T20:18:09.046Z,55.45
2018-05-18T20:20:34.702Z,54.84
2018-05-18T20:23:00.466Z,55.72
2018-05-18T20:25:26.333Z,55.69
2018-05-18T20:27:51.909Z,55.87
2018-05-18T20:30:17.488Z,56.27
2018-05-18T20:35:14.725Z,56.94
2018-05-18T20:37:40.384Z,55.85
2018-05-18T20:40:05.957Z,56.18
2018-05-18T20:42:31.809Z,56.82
2018-05-18T20:44:57.509Z,56.42
2018-05-18T20:47:23.368Z,56.44
2018-05-18T20:49:49.344Z,57.04
2018-05-18T20:52:15.401Z,57.38
2018-05-18T20:54:41.459Z,56.78
2018-05-18T20:57:07.129Z,56.93
2018-05-18T20:59:32.722Z,57.65
2018-05-18T21:01:58.612Z,57.08
2018-05-18T21:04:24.287Z,57.98
2018-05-18T21:06:49.981Z,57.69
2018-05-18T21:09:15.729Z,57.82
2018-05-18T21:11:41.385Z,56.94
2018-05-18T21:14:06.970Z,57.88
2018-05-18T21:16:32.728Z,56.38
2018-05-18T21:18:58.627Z,56.73
2018-05-18T21:21:24.302Z,55.95
2018-05-18T21:23:50.175Z,56.42
2018-05-18T21:26:15.892Z,56.60
2018-05-18T21:28:41.558Z,56.46
2018-05-18T21:31:07.307Z,55.71
2018-05-18T21:33:33.170Z,56.61
2018-05-18T21:35:58.784Z,56.27
2018-05-18T21:38:24.451Z,56.75
2018-05-18T21:40:50.197Z,56.67
2018-05-18T21:43:16.313Z,57.83
2018-05-18T21:45:41.896Z,57.10
2018-05-18T21:48:08.643Z,56.84
2018-05-18T21:50:34.308Z,56.53
2018-05-18T21:52:59.929Z,56.80
2018-05-18T21:55:25.713Z,56.98
2018-05-18T21:57:51.314Z,56.65
2018-05-18T22:00:16.883Z,57.24
2018-05-18T22:02:42.757Z,57.59
2018-05-18T22:05:08.813Z,57.96
2018-05-18T22:07:34.404Z,58.72
2018-05-18T22:09:59.960Z,58.33
2018-05-18T22:12:25.924Z,59.07
2018-05-18T22:14:51.745Z,58.84
2018-05-18T22:17:17.427Z,58.64
2018-05-18T22:19:43.057Z,58.88
2018-05-18T22:22:08.801Z,59.52
2018-05-18T22:24:34.405Z,58.86
2018-05-18T22:26:59.964Z,58.77
2018-05-18T22:29:25.813Z,59.82
2018-05-18T22:31:51.445Z,59.28
2018-05-18T22:34:17.370Z,59.41
2018-05-18T22:36:43.177Z,60.46
2018-05-18T22:39:08.851Z,60.67
2018-05-18T22:41:34.427Z,59.98
2018-05-18T22:44:00.266Z,60.36
2018-05-18T22:46:25.837Z,60.71
2018-05-18T22:48:51.405Z,59.94
2018-05-18T22:51:17.402Z,60.52
2018-05-18T22:53:43.184Z,60.18
2018-05-18T22:56:08.874Z,59.53
2018-05-18T22:58:34.654Z,60.41
2018-05-18T23:01:00.250Z,59.71
2018-05-18T23:03:25.892Z,59.56
2018-05-18T23:05:51.634Z,60.58
2018-05-18T23:08:17.201Z,61.31
2018-05-18T23:10:42.837Z,60.67
2018-05-18T23:13:08.837Z,60.44
2018-05-18T23:15:34.504Z,60.83
2018-05-18T23:18:00.341Z,60.81
2018-05-18T23:20:25.854Z,62.09
2018-05-18T23:22:51.431Z,61.72
2018-05-18T23:25:17.248Z,62.24
2018-05-18T23:27:42.825Z,62.16
2018-05-18T23:30:08.394Z,62.30
2018-05-18T23:32:34.294Z,62.29
2018-05-18T23:35:00.141Z,63.09
2018-05-18T23:37:25.800Z,63.34
2018-05-18T23:39:52.546Z,63.33
2018-05-18T23:42:18.126Z,62.91
2018-05-18T23:44:43.699Z,63.60
2018-05-18T23:47:09.519Z,63.58
2018-05-18T23:49:35.721Z,63.13
2018-05-18T23:52:01.405Z,63.79
2018-05-18T23:54:26.957Z,64.46
2018-05-18T23:56:52.725Z,64.97
2018-05-18T23:59:18.428Z,65.74
